createdAt,value
2023-01-29T00:00:03.832Z,25.57
2023-01-29T00:05:25.525Z,24.50
2023-01-29T00:10:20.349Z,23.97
2023-01-29T00:15:15.098Z,24.37
2023-01-29T00:20:08.976Z,21.97
2023-01-29T00:25:02.322Z,21.23
2023-01-29T00:35:13.979Z,19.20
2023-01-29T00:40:08.616Z,18.63
2023-01-29T00:45:00.845Z,20.97
2023-01-29T00:49:54.443Z,18.20
2023-01-29T00:54:49.826Z,14.87
2023-01-29T00:59:43.097Z,15.43
2023-01-29T01:04:36.333Z,15.13
2023-01-29T01:09:46.832Z,12.70
2023-01-29T01:14:43.289Z,11.23
2023-01-29T01:19:36.892Z,9.67
2023-01-29T01:24:30.391Z,8.03
2023-01-29T01:29:24.569Z,7.87
2023-01-29T01:34:21.839Z,7.70
2023-01-29T01:39:15.355Z,8.20
2023-01-29T01:44:08.629Z,7.30
2023-01-29T01:49:06.526Z,8.33
2023-01-29T01:54:06.671Z,6.93
2023-01-29T01:59:00.650Z,7.30
2023-01-29T02:04:17.566Z,7.30
2023-01-29T02:09:35.774Z,7.27
2023-01-29T02:14:30.742Z,8.30
2023-01-29T02:19:31.486Z,8.97
2023-01-29T02:29:39.463Z,8.07
2023-01-29T02:34:59.679Z,8.40
2023-01-29T02:40:00.124Z,7.03
2023-01-29T02:45:00.651Z,10.07
2023-01-29T02:50:02.209Z,9.60
2023-01-29T02:55:02.958Z,9.97
2023-01-29T03:00:01.867Z,7.60
2023-01-29T03:05:01.259Z,7.83
2023-01-29T03:09:56.464Z,7.90
2023-01-29T03:15:09.790Z,7.90
2023-01-29T03:20:09.254Z,7.37
2023-01-29T03:25:22.812Z,8.33
2023-01-29T03:30:37.297Z,7.53
2023-01-29T03:36:02.576Z,7.37
2023-01-29T03:41:01.227Z,7.53
2023-01-29T03:46:04.950Z,7.70
2023-01-29T03:51:07.680Z,7.07
2023-01-29T03:56:03.801Z,8.20
2023-01-29T04:01:02.700Z,7.97
2023-01-29T04:06:05.632Z,7.73
2023-01-29T04:11:07.266Z,8.07
2023-01-29T04:16:05.582Z,7.82
2023-01-29T04:21:20.555Z,8.10
2023-01-29T04:26:34.180Z,8.60
2023-01-29T04:31:36.736Z,9.10
2023-01-29T04:36:40.242Z,10.02
2023-01-29T04:41:37.709Z,10.63
2023-01-29T04:46:37.146Z,9.40
2023-01-29T04:51:44.386Z,9.97
2023-01-29T04:56:45.375Z,9.37
2023-01-29T05:01:40.064Z,8.90
2023-01-29T05:06:37.084Z,9.80
2023-01-29T05:11:33.412Z,8.80
2023-01-29T05:16:29.857Z,8.90
2023-01-29T05:21:24.286Z,9.53
2023-01-29T05:26:36.156Z,8.53
2023-01-29T05:31:29.372Z,9.57
2023-01-29T05:36:22.591Z,10.13
2023-01-29T05:41:17.204Z,10.63
2023-01-29T05:46:11.709Z,10.47
2023-01-29T05:51:06.312Z,11.00
2023-01-29T05:56:02.692Z,11.57
2023-01-29T06:00:55.866Z,10.97
2023-01-29T06:05:50.451Z,12.27
2023-01-29T06:10:43.638Z,13.30
2023-01-29T06:15:36.745Z,17.60
2023-01-29T06:20:29.905Z,14.50
2023-01-29T06:25:24.555Z,14.77
2023-01-29T06:30:18.558Z,16.93
2023-01-29T06:35:11.925Z,15.07
2023-01-29T06:40:05.620Z,17.17
2023-01-29T06:45:00.168Z,16.80
2023-01-29T06:49:53.354Z,16.07
2023-01-29T06:54:46.475Z,16.63
2023-01-29T06:59:39.666Z,15.80
2023-01-29T07:04:35.558Z,15.83
2023-01-29T07:09:28.883Z,19.50
2023-01-29T07:14:22.080Z,18.10
2023-01-29T07:19:15.566Z,34.27
2023-01-29T07:24:10.648Z,29.10
2023-01-29T07:29:05.756Z,19.67
2023-01-29T07:33:59.092Z,21.50
2023-01-29T07:38:55.252Z,23.53
2023-01-29T07:43:50.031Z,23.27
2023-01-29T07:48:43.479Z,20.47
2023-01-29T07:53:37.126Z,19.60
2023-01-29T07:58:32.303Z,16.07
2023-01-29T08:03:27.056Z,17.40
2023-01-29T08:08:20.508Z,15.20
2023-01-29T08:13:13.753Z,13.60
2023-01-29T08:18:07.443Z,15.00
2023-01-29T08:23:04.609Z,15.73
2023-01-29T08:27:59.109Z,16.03
2023-01-29T08:32:52.326Z,16.33
2023-01-29T08:37:46.740Z,14.53
2023-01-29T08:42:42.584Z,17.20
2023-01-29T08:47:35.885Z,20.50
2023-01-29T08:52:31.316Z,18.07
2023-01-29T08:57:24.482Z,16.33
2023-01-29T09:02:19.105Z,22.40
2023-01-29T09:07:14.320Z,25.00
2023-01-29T09:12:08.104Z,26.17
2023-01-29T09:17:01.378Z,41.17
2023-01-29T09:21:58.351Z,39.73
2023-01-29T09:26:51.483Z,28.70
2023-01-29T09:31:44.754Z,32.80
2023-01-29T09:36:38.208Z,31.90
2023-01-29T09:41:45.393Z,33.47
2023-01-29T09:46:42.209Z,24.77
2023-01-29T09:51:41.385Z,24.03
2023-01-29T09:56:36.799Z,18.73
2023-01-29T10:01:37.135Z,16.00
2023-01-29T10:06:44.494Z,15.45
2023-01-29T10:11:52.499Z,15.03
2023-01-29T10:16:57.470Z,24.07
2023-01-29T10:22:14.067Z,17.07
2023-01-29T10:27:16.314Z,15.97
2023-01-29T10:32:15.843Z,18.50
2023-01-29T10:37:18.651Z,17.27
2023-01-29T10:42:24.541Z,17.17
2023-01-29T10:47:59.829Z,22.23
2023-01-29T10:53:08.401Z,20.17
2023-01-29T10:58:12.346Z,20.27
2023-01-29T11:03:26.916Z,25.50
2023-01-29T11:08:24.353Z,17.83
2023-01-29T11:13:19.814Z,14.23
2023-01-29T11:18:15.971Z,15.10
2023-01-29T11:23:27.878Z,17.77
2023-01-29T11:28:38.261Z,16.37
2023-01-29T11:33:32.041Z,20.13
2023-01-29T11:38:29.610Z,20.10
2023-01-29T11:43:30.113Z,16.37
2023-01-29T11:48:28.319Z,17.27
2023-01-29T11:53:36.062Z,19.97
2023-01-29T11:58:32.822Z,16.87
2023-01-29T12:03:33.670Z,15.60
2023-01-29T12:08:30.792Z,17.27
2023-01-29T12:13:28.401Z,22.20
2023-01-29T12:18:28.000Z,25.93
2023-01-29T12:23:33.995Z,30.20
2023-01-29T12:28:38.127Z,30.50
2023-01-29T12:33:40.813Z,31.20
2023-01-29T12:38:37.243Z,20.63
2023-01-29T12:43:43.462Z,21.33
2023-01-29T12:48:40.180Z,22.33
2023-01-29T12:53:41.399Z,26.80
2023-01-29T12:58:39.374Z,19.40
2023-01-29T13:03:44.300Z,23.10
2023-01-29T13:08:43.860Z,35.40
2023-01-29T13:13:45.108Z,32.60
2023-01-29T13:18:45.150Z,27.23
2023-01-29T13:23:43.209Z,35.55
2023-01-29T13:28:38.004Z,39.50
2023-01-29T13:33:34.605Z,35.93
2023-01-29T13:38:30.949Z,28.50
2023-01-29T13:43:25.674Z,30.30
2023-01-29T13:48:25.607Z,37.20
2023-01-29T13:53:24.315Z,39.92
2023-01-29T13:58:19.675Z,52.43
2023-01-29T14:04:03.415Z,55.37
2023-01-29T14:08:55.934Z,41.47
2023-01-29T14:13:52.482Z,95.80
2023-01-29T14:18:49.651Z,52.00
2023-01-29T14:23:46.929Z,47.23
2023-01-29T14:28:41.755Z,45.03
2023-01-29T14:33:38.024Z,43.40
2023-01-29T14:38:35.962Z,43.53
2023-01-29T14:43:29.122Z,51.50
2023-01-29T14:48:38.963Z,86.97
2023-01-29T14:53:46.961Z,49.50
2023-01-29T14:58:46.253Z,37.20
2023-01-29T15:03:45.880Z,41.33
2023-01-29T15:08:49.701Z,53.25
2023-01-29T15:13:50.468Z,47.60
2023-01-29T15:18:48.996Z,50.23
2023-01-29T15:23:44.482Z,51.90
2023-01-29T15:28:38.853Z,50.60
2023-01-29T15:33:33.482Z,46.93
2023-01-29T15:38:27.487Z,56.70
2023-01-29T15:43:24.296Z,50.50
2023-01-29T15:48:20.871Z,45.90
2023-01-29T15:53:21.374Z,48.00
2023-01-29T15:58:18.881Z,51.17
2023-01-29T16:03:17.178Z,48.63
2023-01-29T16:08:14.473Z,55.30
2023-01-29T16:13:15.427Z,41.10
2023-01-29T16:18:22.712Z,50.07
2023-01-29T16:23:19.342Z,46.03
2023-01-29T16:28:14.596Z,34.13
2023-01-29T16:33:13.226Z,32.87
2023-01-29T16:38:27.857Z,28.67
2023-01-29T16:43:49.668Z,23.57
2023-01-29T16:48:44.730Z,22.67
2023-01-29T16:53:39.449Z,20.73
2023-01-29T16:58:35.014Z,23.87
2023-01-29T17:03:31.680Z,20.17
2023-01-29T17:08:29.055Z,20.33
2023-01-29T17:13:32.976Z,19.67
2023-01-29T17:18:26.702Z,16.93
2023-01-29T17:23:21.888Z,17.63
2023-01-29T17:28:19.350Z,16.53
2023-01-29T17:33:15.617Z,19.00
2023-01-29T17:38:24.296Z,41.07
2023-01-29T17:43:19.111Z,16.07
2023-01-29T17:48:18.183Z,17.93
2023-01-29T17:53:11.603Z,20.27
2023-01-29T17:58:05.087Z,21.57
2023-01-29T18:03:01.702Z,21.87
2023-01-29T18:07:56.615Z,19.87
2023-01-29T18:12:53.059Z,20.47
2023-01-29T18:17:52.206Z,18.60
2023-01-29T18:23:04.325Z,18.07
2023-01-29T18:28:01.018Z,17.37
2023-01-29T18:32:54.796Z,18.00
2023-01-29T18:37:48.310Z,19.27
2023-01-29T18:42:43.238Z,20.37
2023-01-29T18:47:36.612Z,19.37
2023-01-29T18:52:29.991Z,21.83
2023-01-29T18:58:26.171Z,24.30
2023-01-29T19:02:40.191Z,24.40
2023-01-29T19:07:34.396Z,29.10
2023-01-29T19:12:27.753Z,30.47
2023-01-29T19:17:21.083Z,27.20
2023-01-29T19:22:16.595Z,50.83
2023-01-29T19:27:10.066Z,37.30
2023-01-29T19:32:08.973Z,45.17
2023-01-29T19:37:02.470Z,35.47
2023-01-29T19:41:57.214Z,32.73
2023-01-29T19:46:50.659Z,30.57
2023-01-29T19:51:44.915Z,31.80
2023-01-29T19:56:38.619Z,35.63
2023-01-29T20:01:34.166Z,34.70
2023-01-29T20:06:32.220Z,36.63
2023-01-29T20:11:26.166Z,33.43
2023-01-29T20:16:20.779Z,44.37
2023-01-29T20:21:18.007Z,32.70
2023-01-29T20:26:15.211Z,31.13
2023-01-29T20:31:10.915Z,29.93
2023-01-29T20:36:06.428Z,36.47
2023-01-29T20:41:07.131Z,37.70
2023-01-29T20:46:01.473Z,40.63
2023-01-29T20:50:55.313Z,38.70
2023-01-29T20:55:48.630Z,48.07
2023-01-29T21:00:43.720Z,43.70
2023-01-29T21:05:40.402Z,36.10
2023-01-29T21:10:36.167Z,37.93
2023-01-29T21:15:31.802Z,28.63
2023-01-29T21:20:26.735Z,23.30
2023-01-29T21:25:21.441Z,19.63
2023-01-29T21:30:15.385Z,18.67
2023-01-29T21:35:09.732Z,17.57
2023-01-29T21:40:04.651Z,17.73
2023-01-29T21:45:00.553Z,16.00
2023-01-29T21:49:53.772Z,16.07
2023-01-29T21:54:48.984Z,16.90
2023-01-29T21:59:46.869Z,18.80
2023-01-29T22:04:46.178Z,18.30
2023-01-29T22:09:39.864Z,15.50
2023-01-29T22:14:33.185Z,18.40
2023-01-29T22:19:30.339Z,19.07
2023-01-29T22:24:25.131Z,17.00
2023-01-29T22:29:19.705Z,14.53
2023-01-29T22:34:17.112Z,15.23
2023-01-29T22:39:11.921Z,18.17
2023-01-29T22:44:05.397Z,15.40
2023-01-29T22:48:58.577Z,14.70
2023-01-29T22:53:53.625Z,15.27
2023-01-29T22:58:51.663Z,14.90
2023-01-29T23:03:45.634Z,13.70
2023-01-29T23:08:38.922Z,13.67
2023-01-29T23:13:32.095Z,14.30
2023-01-29T23:18:27.108Z,13.90
2023-01-29T23:23:20.319Z,13.07
2023-01-29T23:28:13.775Z,10.90
2023-01-29T23:33:12.072Z,10.73
2023-01-29T23:38:06.969Z,9.93
2023-01-29T23:43:00.109Z,9.70
2023-01-29T23:47:53.284Z,9.03
2023-01-29T23:52:46.494Z,10.07
2023-01-29T23:57:43.703Z,10.13
